sensor_id;sensor_type;location;lat;lon;timestamp;P1;durP1;ratioP1;P2;durP2;ratioP2
10410;SDS011;5251;52.112;8.606;2024-02-21T00:00:51;17.00;;;11.45;;
10410;SDS011;5251;52.112;8.606;2024-02-21T00:03:17;17.98;;;11.00;;
10410;SDS011;5251;52.112;8.606;2024-02-21T00:05:43;19.50;;;11.25;;
10410;SDS011;5251;52.112;8.606;2024-02-21T00:08:09;17.08;;;11.63;;
10410;SDS011;5251;52.112;8.606;2024-02-21T00:10:35;18.65;;;13.32;;
10410;SDS011;5251;52.112;8.606;2024-02-21T00:13:00;18.98;;;11.75;;
10410;SDS011;5251;52.112;8.606;2024-02-21T00:15:26;22.40;;;13.00;;
10410;SDS011;5251;52.112;8.606;2024-02-21T00:17:52;20.52;;;12.65;;
10410;SDS011;5251;52.112;8.606;2024-02-21T00:20:18;19.02;;;12.30;;
10410;SDS011;5251;52.112;8.606;2024-02-21T00:22:44;18.95;;;12.88;;
10410;SDS011;5251;52.112;8.606;2024-02-21T00:25:10;17.48;;;12.10;;
10410;SDS011;5251;52.112;8.606;2024-02-21T00:27:35;20.45;;;12.73;;
10410;SDS011;5251;52.112;8.606;2024-02-21T00:30:02;19.40;;;12.02;;
10410;SDS011;5251;52.112;8.606;2024-02-21T00:32:28;18.73;;;12.50;;
10410;SDS011;5251;52.112;8.606;2024-02-21T00:34:54;21.67;;;12.98;;
10410;SDS011;5251;52.112;8.606;2024-02-21T00:37:19;16.38;;;11.70;;
10410;SDS011;5251;52.112;8.606;2024-02-21T00:39:45;19.88;;;12.73;;
10410;SDS011;5251;52.112;8.606;2024-02-21T00:42:11;22.30;;;13.40;;
10410;SDS011;5251;52.112;8.606;2024-02-21T00:44:36;16.10;;;11.57;;
10410;SDS011;5251;52.112;8.606;2024-02-21T00:47:02;20.13;;;12.90;;
10410;SDS011;5251;52.112;8.606;2024-02-21T00:49:28;19.95;;;11.80;;
10410;SDS011;5251;52.112;8.606;2024-02-21T00:51:53;16.73;;;12.02;;
10410;SDS011;5251;52.112;8.606;2024-02-21T00:54:19;22.55;;;12.45;;
10410;SDS011;5251;52.112;8.606;2024-02-21T00:56:44;17.10;;;11.02;;
10410;SDS011;5251;52.112;8.606;2024-02-21T00:59:10;18.45;;;11.80;;
10410;SDS011;5251;52.112;8.606;2024-02-21T01:01:36;18.42;;;12.25;;
10410;SDS011;5251;52.112;8.606;2024-02-21T01:04:01;18.75;;;11.75;;
10410;SDS011;5251;52.112;8.606;2024-02-21T01:06:27;17.60;;;10.93;;
10410;SDS011;5251;52.112;8.606;2024-02-21T01:08:53;19.08;;;11.82;;
10410;SDS011;5251;52.112;8.606;2024-02-21T01:11:18;18.23;;;11.38;;
10410;SDS011;5251;52.112;8.606;2024-02-21T01:13:44;21.75;;;12.55;;
10410;SDS011;5251;52.112;8.606;2024-02-21T01:16:10;19.23;;;11.65;;
10410;SDS011;5251;52.112;8.606;2024-02-21T01:18:38;16.30;;;11.40;;
10410;SDS011;5251;52.112;8.606;2024-02-21T01:21:04;21.42;;;12.68;;
10410;SDS011;5251;52.112;8.606;2024-02-21T01:23:36;18.70;;;11.90;;
10410;SDS011;5251;52.112;8.606;2024-02-21T01:26:02;17.63;;;12.25;;
10410;SDS011;5251;52.112;8.606;2024-02-21T01:28:29;21.70;;;12.43;;
10410;SDS011;5251;52.112;8.606;2024-02-21T01:30:55;20.08;;;12.50;;
10410;SDS011;5251;52.112;8.606;2024-02-21T01:33:22;16.95;;;10.45;;
10410;SDS011;5251;52.112;8.606;2024-02-21T01:35:47;21.80;;;12.73;;
10410;SDS011;5251;52.112;8.606;2024-02-21T01:38:14;17.42;;;11.77;;
10410;SDS011;5251;52.112;8.606;2024-02-21T01:40:39;21.60;;;11.73;;
10410;SDS011;5251;52.112;8.606;2024-02-21T01:43:14;21.02;;;11.63;;
10410;SDS011;5251;52.112;8.606;2024-02-21T01:45:52;19.25;;;12.40;;
10410;SDS011;5251;52.112;8.606;2024-02-21T01:48:19;21.48;;;11.80;;
10410;SDS011;5251;52.112;8.606;2024-02-21T01:50:47;18.75;;;10.60;;
10410;SDS011;5251;52.112;8.606;2024-02-21T01:53:30;20.30;;;11.40;;
10410;SDS011;5251;52.112;8.606;2024-02-21T01:55:59;19.63;;;11.68;;
10410;SDS011;5251;52.112;8.606;2024-02-21T01:58:25;19.88;;;11.90;;
10410;SDS011;5251;52.112;8.606;2024-02-21T02:00:52;20.90;;;12.68;;
10410;SDS011;5251;52.112;8.606;2024-02-21T02:03:20;19.85;;;12.90;;
10410;SDS011;5251;52.112;8.606;2024-02-21T02:05:47;24.08;;;12.57;;
10410;SDS011;5251;52.112;8.606;2024-02-21T02:08:18;19.42;;;12.55;;
10410;SDS011;5251;52.112;8.606;2024-02-21T02:10:44;18.95;;;12.05;;
10410;SDS011;5251;52.112;8.606;2024-02-21T02:13:13;19.00;;;12.50;;
10410;SDS011;5251;52.112;8.606;2024-02-21T02:15:49;19.38;;;12.35;;
10410;SDS011;5251;52.112;8.606;2024-02-21T02:18:15;21.77;;;12.63;;
10410;SDS011;5251;52.112;8.606;2024-02-21T02:20:42;26.02;;;13.45;;
10410;SDS011;5251;52.112;8.606;2024-02-21T02:25:48;18.13;;;11.88;;
10410;SDS011;5251;52.112;8.606;2024-02-21T02:28:17;20.13;;;11.93;;
10410;SDS011;5251;52.112;8.606;2024-02-21T02:30:43;18.42;;;11.93;;
10410;SDS011;5251;52.112;8.606;2024-02-21T02:33:09;19.92;;;12.20;;
10410;SDS011;5251;52.112;8.606;2024-02-21T02:35:35;20.45;;;12.15;;
10410;SDS011;5251;52.112;8.606;2024-02-21T02:38:01;20.48;;;11.73;;
10410;SDS011;5251;52.112;8.606;2024-02-21T02:40:27;23.13;;;13.20;;
10410;SDS011;5251;52.112;8.606;2024-02-21T02:42:53;24.42;;;13.43;;
10410;SDS011;5251;52.112;8.606;2024-02-21T02:45:22;22.08;;;13.20;;
10410;SDS011;5251;52.112;8.606;2024-02-21T02:47:54;22.35;;;13.32;;
10410;SDS011;5251;52.112;8.606;2024-02-21T02:50:21;22.38;;;12.82;;
10410;SDS011;5251;52.112;8.606;2024-02-21T02:52:47;22.30;;;13.48;;
10410;SDS011;5251;52.112;8.606;2024-02-21T02:55:13;20.63;;;12.77;;
10410;SDS011;5251;52.112;8.606;2024-02-21T02:57:39;20.40;;;12.57;;
10410;SDS011;5251;52.112;8.606;2024-02-21T03:00:07;23.35;;;13.40;;
10410;SDS011;5251;52.112;8.606;2024-02-21T03:02:33;24.83;;;13.93;;
10410;SDS011;5251;52.112;8.606;2024-02-21T03:04:59;23.52;;;12.95;;
10410;SDS011;5251;52.112;8.606;2024-02-21T03:07:25;19.95;;;12.40;;
10410;SDS011;5251;52.112;8.606;2024-02-21T03:09:51;22.48;;;13.65;;
10410;SDS011;5251;52.112;8.606;2024-02-21T03:12:18;19.73;;;13.38;;
10410;SDS011;5251;52.112;8.606;2024-02-21T03:14:49;23.67;;;13.20;;
10410;SDS011;5251;52.112;8.606;2024-02-21T03:17:15;20.90;;;12.38;;
10410;SDS011;5251;52.112;8.606;2024-02-21T03:19:41;19.08;;;12.93;;
10410;SDS011;5251;52.112;8.606;2024-02-21T03:22:07;19.92;;;12.90;;
10410;SDS011;5251;52.112;8.606;2024-02-21T03:24:32;21.05;;;11.82;;
10410;SDS011;5251;52.112;8.606;2024-02-21T03:26:58;23.63;;;12.50;;
10410;SDS011;5251;52.112;8.606;2024-02-21T03:29:24;25.50;;;12.88;;
10410;SDS011;5251;52.112;8.606;2024-02-21T03:31:50;20.25;;;11.98;;
10410;SDS011;5251;52.112;8.606;2024-02-21T03:34:16;20.15;;;11.88;;
10410;SDS011;5251;52.112;8.606;2024-02-21T03:36:41;19.05;;;11.38;;
10410;SDS011;5251;52.112;8.606;2024-02-21T03:39:07;23.45;;;11.65;;
10410;SDS011;5251;52.112;8.606;2024-02-21T03:41:34;18.45;;;11.45;;
10410;SDS011;5251;52.112;8.606;2024-02-21T03:44:00;20.17;;;11.07;;
10410;SDS011;5251;52.112;8.606;2024-02-21T03:46:26;18.10;;;11.60;;
10410;SDS011;5251;52.112;8.606;2024-02-21T03:48:52;19.60;;;11.00;;
10410;SDS011;5251;52.112;8.606;2024-02-21T03:51:18;19.83;;;10.82;;
10410;SDS011;5251;52.112;8.606;2024-02-21T03:53:44;19.35;;;11.45;;
10410;SDS011;5251;52.112;8.606;2024-02-21T03:56:09;16.33;;;11.25;;
10410;SDS011;5251;52.112;8.606;2024-02-21T03:58:35;19.35;;;11.95;;
10410;SDS011;5251;52.112;8.606;2024-02-21T04:01:01;21.63;;;12.52;;
10410;SDS011;5251;52.112;8.606;2024-02-21T04:03:27;17.00;;;11.30;;
10410;SDS011;5251;52.112;8.606;2024-02-21T04:05:53;18.20;;;11.25;;
10410;SDS011;5251;52.112;8.606;2024-02-21T04:08:19;18.58;;;11.85;;
10410;SDS011;5251;52.112;8.606;2024-02-21T04:10:44;19.58;;;11.27;;
10410;SDS011;5251;52.112;8.606;2024-02-21T04:13:10;21.15;;;11.35;;
10410;SDS011;5251;52.112;8.606;2024-02-21T04:15:36;18.83;;;11.95;;
10410;SDS011;5251;52.112;8.606;2024-02-21T04:18:01;15.65;;;10.68;;
10410;SDS011;5251;52.112;8.606;2024-02-21T04:20:28;21.83;;;11.93;;
10410;SDS011;5251;52.112;8.606;2024-02-21T04:22:54;17.00;;;10.23;;
10410;SDS011;5251;52.112;8.606;2024-02-21T04:25:20;18.77;;;11.82;;
10410;SDS011;5251;52.112;8.606;2024-02-21T04:27:46;17.70;;;11.25;;
10410;SDS011;5251;52.112;8.606;2024-02-21T04:30:11;19.42;;;11.27;;
10410;SDS011;5251;52.112;8.606;2024-02-21T04:32:37;21.17;;;11.70;;
10410;SDS011;5251;52.112;8.606;2024-02-21T04:35:03;16.58;;;11.50;;
10410;SDS011;5251;52.112;8.606;2024-02-21T04:37:29;18.83;;;11.85;;
10410;SDS011;5251;52.112;8.606;2024-02-21T04:39:56;15.60;;;10.38;;
10410;SDS011;5251;52.112;8.606;2024-02-21T04:42:21;16.80;;;11.00;;
10410;SDS011;5251;52.112;8.606;2024-02-21T04:44:47;19.27;;;11.73;;
10410;SDS011;5251;52.112;8.606;2024-02-21T04:47:13;15.93;;;10.90;;
10410;SDS011;5251;52.112;8.606;2024-02-21T04:49:38;21.52;;;11.15;;
10410;SDS011;5251;52.112;8.606;2024-02-21T04:52:04;18.95;;;12.05;;
10410;SDS011;5251;52.112;8.606;2024-02-21T04:54:30;18.33;;;11.65;;
10410;SDS011;5251;52.112;8.606;2024-02-21T04:56:56;19.02;;;11.40;;
10410;SDS011;5251;52.112;8.606;2024-02-21T04:59:21;19.02;;;11.93;;
10410;SDS011;5251;52.112;8.606;2024-02-21T05:01:47;20.67;;;12.80;;
10410;SDS011;5251;52.112;8.606;2024-02-21T05:04:13;20.38;;;11.77;;
10410;SDS011;5251;52.112;8.606;2024-02-21T05:06:41;18.95;;;11.90;;
10410;SDS011;5251;52.112;8.606;2024-02-21T05:09:07;19.90;;;11.55;;
10410;SDS011;5251;52.112;8.606;2024-02-21T05:11:34;25.13;;;12.60;;
10410;SDS011;5251;52.112;8.606;2024-02-21T05:14:00;20.88;;;12.45;;
10410;SDS011;5251;52.112;8.606;2024-02-21T05:16:26;19.58;;;11.90;;
10410;SDS011;5251;52.112;8.606;2024-02-21T05:18:52;15.68;;;10.70;;
10410;SDS011;5251;52.112;8.606;2024-02-21T05:21:17;16.02;;;10.93;;
10410;SDS011;5251;52.112;8.606;2024-02-21T05:23:44;17.45;;;11.18;;
10410;SDS011;5251;52.112;8.606;2024-02-21T05:26:09;18.55;;;11.70;;
10410;SDS011;5251;52.112;8.606;2024-02-21T05:28:35;18.45;;;11.13;;
10410;SDS011;5251;52.112;8.606;2024-02-21T05:31:00;20.25;;;11.88;;
10410;SDS011;5251;52.112;8.606;2024-02-21T05:33:26;20.92;;;11.65;;
10410;SDS011;5251;52.112;8.606;2024-02-21T05:35:52;19.13;;;12.52;;
10410;SDS011;5251;52.112;8.606;2024-02-21T05:38:18;19.83;;;12.50;;
10410;SDS011;5251;52.112;8.606;2024-02-21T05:40:46;19.27;;;12.18;;
10410;SDS011;5251;52.112;8.606;2024-02-21T05:43:13;19.33;;;11.65;;
10410;SDS011;5251;52.112;8.606;2024-02-21T05:45:38;17.55;;;11.25;;
10410;SDS011;5251;52.112;8.606;2024-02-21T05:48:04;21.52;;;12.10;;
10410;SDS011;5251;52.112;8.606;2024-02-21T05:50:30;20.95;;;11.77;;
10410;SDS011;5251;52.112;8.606;2024-02-21T05:52:57;18.27;;;10.95;;
10410;SDS011;5251;52.112;8.606;2024-02-21T05:55:23;20.70;;;12.80;;
10410;SDS011;5251;52.112;8.606;2024-02-21T05:57:48;18.67;;;12.15;;
10410;SDS011;5251;52.112;8.606;2024-02-21T06:00:14;17.67;;;11.80;;
10410;SDS011;5251;52.112;8.606;2024-02-21T06:02:40;19.70;;;11.95;;
10410;SDS011;5251;52.112;8.606;2024-02-21T06:05:07;20.30;;;12.18;;
10410;SDS011;5251;52.112;8.606;2024-02-21T06:07:33;20.08;;;12.20;;
10410;SDS011;5251;52.112;8.606;2024-02-21T06:09:59;22.35;;;13.02;;
10410;SDS011;5251;52.112;8.606;2024-02-21T06:12:26;17.13;;;11.43;;
10410;SDS011;5251;52.112;8.606;2024-02-21T06:14:52;19.98;;;11.23;;
10410;SDS011;5251;52.112;8.606;2024-02-21T06:17:18;16.65;;;12.55;;
10410;SDS011;5251;52.112;8.606;2024-02-21T06:19:43;16.30;;;11.15;;
10410;SDS011;5251;52.112;8.606;2024-02-21T06:22:10;19.52;;;11.95;;
10410;SDS011;5251;52.112;8.606;2024-02-21T06:24:36;14.43;;;10.32;;
10410;SDS011;5251;52.112;8.606;2024-02-21T06:27:05;15.75;;;11.13;;
10410;SDS011;5251;52.112;8.606;2024-02-21T06:29:31;19.65;;;11.13;;
10410;SDS011;5251;52.112;8.606;2024-02-21T06:31:57;15.45;;;10.88;;
10410;SDS011;5251;52.112;8.606;2024-02-21T06:34:23;15.50;;;10.82;;
10410;SDS011;5251;52.112;8.606;2024-02-21T06:36:49;20.85;;;11.02;;
10410;SDS011;5251;52.112;8.606;2024-02-21T06:39:15;17.33;;;11.30;;
10410;SDS011;5251;52.112;8.606;2024-02-21T06:41:41;19.30;;;11.63;;
10410;SDS011;5251;52.112;8.606;2024-02-21T06:44:07;18.15;;;10.75;;
10410;SDS011;5251;52.112;8.606;2024-02-21T06:46:33;20.65;;;11.50;;
10410;SDS011;5251;52.112;8.606;2024-02-21T06:48:58;18.52;;;11.20;;
10410;SDS011;5251;52.112;8.606;2024-02-21T06:51:25;18.73;;;10.52;;
10410;SDS011;5251;52.112;8.606;2024-02-21T06:53:51;17.73;;;10.30;;
10410;SDS011;5251;52.112;8.606;2024-02-21T06:56:17;19.17;;;11.05;;
10410;SDS011;5251;52.112;8.606;2024-02-21T06:58:43;15.43;;;10.35;;
10410;SDS011;5251;52.112;8.606;2024-02-21T07:01:08;14.80;;;9.93;;
10410;SDS011;5251;52.112;8.606;2024-02-21T07:03:35;14.48;;;8.93;;
10410;SDS011;5251;52.112;8.606;2024-02-21T07:06:00;13.82;;;9.30;;
10410;SDS011;5251;52.112;8.606;2024-02-21T07:08:26;19.90;;;10.23;;
10410;SDS011;5251;52.112;8.606;2024-02-21T07:10:52;13.85;;;9.88;;
10410;SDS011;5251;52.112;8.606;2024-02-21T07:13:17;16.48;;;9.15;;
10410;SDS011;5251;52.112;8.606;2024-02-21T07:15:43;13.13;;;8.90;;
10410;SDS011;5251;52.112;8.606;2024-02-21T07:18:09;13.27;;;8.73;;
10410;SDS011;5251;52.112;8.606;2024-02-21T07:20:34;13.02;;;7.80;;
10410;SDS011;5251;52.112;8.606;2024-02-21T07:23:02;13.18;;;8.10;;
10410;SDS011;5251;52.112;8.606;2024-02-21T07:25:28;14.48;;;8.10;;
10410;SDS011;5251;52.112;8.606;2024-02-21T07:27:54;11.75;;;7.40;;
10410;SDS011;5251;52.112;8.606;2024-02-21T07:30:19;9.65;;;6.53;;
10410;SDS011;5251;52.112;8.606;2024-02-21T07:32:45;11.63;;;6.95;;
10410;SDS011;5251;52.112;8.606;2024-02-21T07:35:13;15.25;;;7.32;;
10410;SDS011;5251;52.112;8.606;2024-02-21T07:37:39;12.05;;;7.50;;
10410;SDS011;5251;52.112;8.606;2024-02-21T07:40:12;11.40;;;6.88;;
10410;SDS011;5251;52.112;8.606;2024-02-21T07:42:38;10.00;;;6.40;;
10410;SDS011;5251;52.112;8.606;2024-02-21T07:45:04;15.50;;;7.28;;
10410;SDS011;5251;52.112;8.606;2024-02-21T07:47:31;9.27;;;5.72;;
10410;SDS011;5251;52.112;8.606;2024-02-21T07:49:56;9.13;;;6.18;;
10410;SDS011;5251;52.112;8.606;2024-02-21T07:52:22;12.80;;;6.13;;
10410;SDS011;5251;52.112;8.606;2024-02-21T07:54:47;12.32;;;6.45;;
10410;SDS011;5251;52.112;8.606;2024-02-21T07:57:13;11.85;;;5.90;;
10410;SDS011;5251;52.112;8.606;2024-02-21T07:59:39;9.35;;;5.80;;
10410;SDS011;5251;52.112;8.606;2024-02-21T08:02:04;11.52;;;6.25;;
10410;SDS011;5251;52.112;8.606;2024-02-21T08:04:32;8.82;;;5.10;;
10410;SDS011;5251;52.112;8.606;2024-02-21T08:06:57;11.00;;;5.30;;
10410;SDS011;5251;52.112;8.606;2024-02-21T08:09:26;8.25;;;5.13;;
10410;SDS011;5251;52.112;8.606;2024-02-21T08:11:53;9.15;;;5.18;;
10410;SDS011;5251;52.112;8.606;2024-02-21T08:14:19;11.07;;;5.50;;
10410;SDS011;5251;52.112;8.606;2024-02-21T08:16:45;8.30;;;4.75;;
10410;SDS011;5251;52.112;8.606;2024-02-21T08:19:11;9.40;;;5.40;;
10410;SDS011;5251;52.112;8.606;2024-02-21T08:21:36;9.82;;;5.18;;
10410;SDS011;5251;52.112;8.606;2024-02-21T08:24:02;10.13;;;4.95;;
10410;SDS011;5251;52.112;8.606;2024-02-21T08:26:28;7.95;;;4.72;;
10410;SDS011;5251;52.112;8.606;2024-02-21T08:28:56;11.88;;;5.03;;
10410;SDS011;5251;52.112;8.606;2024-02-21T08:31:24;8.80;;;5.10;;
10410;SDS011;5251;52.112;8.606;2024-02-21T08:33:56;10.07;;;4.78;;
10410;SDS011;5251;52.112;8.606;2024-02-21T08:36:27;11.18;;;4.85;;
10410;SDS011;5251;52.112;8.606;2024-02-21T08:38:54;7.63;;;4.10;;
10410;SDS011;5251;52.112;8.606;2024-02-21T08:41:20;12.05;;;5.05;;
10410;SDS011;5251;52.112;8.606;2024-02-21T08:43:48;8.82;;;4.38;;
10410;SDS011;5251;52.112;8.606;2024-02-21T08:46:14;7.93;;;4.70;;
10410;SDS011;5251;52.112;8.606;2024-02-21T08:48:40;8.77;;;4.78;;
10410;SDS011;5251;52.112;8.606;2024-02-21T08:51:05;7.38;;;4.70;;
10410;SDS011;5251;52.112;8.606;2024-02-21T08:53:31;11.05;;;4.45;;
10410;SDS011;5251;52.112;8.606;2024-02-21T08:55:57;6.97;;;3.97;;
10410;SDS011;5251;52.112;8.606;2024-02-21T08:58:24;8.27;;;4.47;;
10410;SDS011;5251;52.112;8.606;2024-02-21T09:00:51;10.52;;;4.57;;
10410;SDS011;5251;52.112;8.606;2024-02-21T09:03:17;6.20;;;4.13;;
10410;SDS011;5251;52.112;8.606;2024-02-21T09:05:45;9.27;;;4.28;;
10410;SDS011;5251;52.112;8.606;2024-02-21T09:08:11;7.53;;;4.15;;
10410;SDS011;5251;52.112;8.606;2024-02-21T09:10:37;8.43;;;3.95;;
10410;SDS011;5251;52.112;8.606;2024-02-21T09:13:04;8.20;;;4.10;;
10410;SDS011;5251;52.112;8.606;2024-02-21T09:15:29;10.82;;;4.47;;
10410;SDS011;5251;52.112;8.606;2024-02-21T09:17:55;9.75;;;4.15;;
10410;SDS011;5251;52.112;8.606;2024-02-21T09:20:21;6.35;;;3.40;;
10410;SDS011;5251;52.112;8.606;2024-02-21T09:22:46;8.57;;;3.35;;
10410;SDS011;5251;52.112;8.606;2024-02-21T09:25:12;9.23;;;4.40;;
10410;SDS011;5251;52.112;8.606;2024-02-21T09:27:39;7.28;;;3.55;;
10410;SDS011;5251;52.112;8.606;2024-02-21T09:30:05;9.90;;;4.50;;
10410;SDS011;5251;52.112;8.606;2024-02-21T09:32:31;6.45;;;3.70;;
10410;SDS011;5251;52.112;8.606;2024-02-21T09:34:59;7.97;;;3.80;;
10410;SDS011;5251;52.112;8.606;2024-02-21T09:37:25;5.05;;;3.20;;
10410;SDS011;5251;52.112;8.606;2024-02-21T09:39:51;6.63;;;3.63;;
10410;SDS011;5251;52.112;8.606;2024-02-21T09:42:19;7.68;;;3.53;;
10410;SDS011;5251;52.112;8.606;2024-02-21T09:44:46;7.07;;;3.60;;
10410;SDS011;5251;52.112;8.606;2024-02-21T09:47:16;6.72;;;3.35;;
10410;SDS011;5251;52.112;8.606;2024-02-21T09:49:59;6.40;;;3.42;;
10410;SDS011;5251;52.112;8.606;2024-02-21T09:52:28;4.43;;;3.20;;
10410;SDS011;5251;52.112;8.606;2024-02-21T09:54:54;4.25;;;3.38;;
10410;SDS011;5251;52.112;8.606;2024-02-21T09:57:19;4.22;;;2.75;;
10410;SDS011;5251;52.112;8.606;2024-02-21T09:59:48;6.80;;;3.65;;
10410;SDS011;5251;52.112;8.606;2024-02-21T10:02:15;5.15;;;3.03;;
10410;SDS011;5251;52.112;8.606;2024-02-21T10:04:40;5.47;;;2.70;;
10410;SDS011;5251;52.112;8.606;2024-02-21T10:07:06;5.53;;;3.25;;
10410;SDS011;5251;52.112;8.606;2024-02-21T10:09:32;5.13;;;2.85;;
10410;SDS011;5251;52.112;8.606;2024-02-21T10:12:08;6.40;;;3.00;;
10410;SDS011;5251;52.112;8.606;2024-02-21T10:14:37;5.82;;;2.92;;
10410;SDS011;5251;52.112;8.606;2024-02-21T10:17:03;6.97;;;3.17;;
10410;SDS011;5251;52.112;8.606;2024-02-21T10:19:34;5.47;;;2.80;;
10410;SDS011;5251;52.112;8.606;2024-02-21T10:22:03;7.05;;;3.47;;
10410;SDS011;5251;52.112;8.606;2024-02-21T10:24:32;5.20;;;2.90;;
10410;SDS011;5251;52.112;8.606;2024-02-21T10:27:07;5.97;;;3.17;;
10410;SDS011;5251;52.112;8.606;2024-02-21T10:29:37;4.65;;;2.85;;
10410;SDS011;5251;52.112;8.606;2024-02-21T10:32:07;4.60;;;2.60;;
10410;SDS011;5251;52.112;8.606;2024-02-21T10:34:37;5.43;;;2.80;;
10410;SDS011;5251;52.112;8.606;2024-02-21T10:37:04;6.28;;;3.22;;
10410;SDS011;5251;52.112;8.606;2024-02-21T10:39:40;3.88;;;2.78;;
10410;SDS011;5251;52.112;8.606;2024-02-21T10:42:07;5.03;;;2.70;;
10410;SDS011;5251;52.112;8.606;2024-02-21T10:44:39;5.32;;;3.28;;
10410;SDS011;5251;52.112;8.606;2024-02-21T10:47:09;5.53;;;3.00;;
10410;SDS011;5251;52.112;8.606;2024-02-21T10:49:39;5.47;;;3.30;;
10410;SDS011;5251;52.112;8.606;2024-02-21T10:52:17;4.60;;;2.80;;
10410;SDS011;5251;52.112;8.606;2024-02-21T10:55:03;5.10;;;2.92;;
10410;SDS011;5251;52.112;8.606;2024-02-21T10:57:32;4.65;;;3.05;;
10410;SDS011;5251;52.112;8.606;2024-02-21T11:00:00;6.15;;;3.40;;
10410;SDS011;5251;52.112;8.606;2024-02-21T11:02:28;5.18;;;3.28;;
10410;SDS011;5251;52.112;8.606;2024-02-21T11:04:56;5.30;;;3.65;;
10410;SDS011;5251;52.112;8.606;2024-02-21T11:07:23;5.95;;;3.42;;
10410;SDS011;5251;52.112;8.606;2024-02-21T11:09:52;6.60;;;3.47;;
10410;SDS011;5251;52.112;8.606;2024-02-21T11:12:20;6.13;;;3.50;;
10410;SDS011;5251;52.112;8.606;2024-02-21T11:14:46;6.15;;;4.13;;
10410;SDS011;5251;52.112;8.606;2024-02-21T11:17:19;6.63;;;4.20;;
10410;SDS011;5251;52.112;8.606;2024-02-21T11:19:51;7.13;;;4.30;;
10410;SDS011;5251;52.112;8.606;2024-02-21T11:22:18;7.90;;;4.43;;
10410;SDS011;5251;52.112;8.606;2024-02-21T11:24:45;8.25;;;4.85;;
10410;SDS011;5251;52.112;8.606;2024-02-21T11:29:44;8.10;;;5.00;;
10410;SDS011;5251;52.112;8.606;2024-02-21T11:32:10;9.48;;;4.97;;
10410;SDS011;5251;52.112;8.606;2024-02-21T11:34:37;9.93;;;4.72;;
10410;SDS011;5251;52.112;8.606;2024-02-21T11:37:12;9.18;;;5.07;;
10410;SDS011;5251;52.112;8.606;2024-02-21T11:39:41;8.95;;;5.40;;
10410;SDS011;5251;52.112;8.606;2024-02-21T11:42:07;9.20;;;4.93;;
10410;SDS011;5251;52.112;8.606;2024-02-21T11:44:36;9.88;;;5.85;;
10410;SDS011;5251;52.112;8.606;2024-02-21T11:47:07;8.02;;;5.53;;
10410;SDS011;5251;52.112;8.606;2024-02-21T11:49:37;9.25;;;5.95;;
10410;SDS011;5251;52.112;8.606;2024-02-21T11:52:07;11.45;;;6.03;;
10410;SDS011;5251;52.112;8.606;2024-02-21T11:54:33;9.18;;;5.60;;
10410;SDS011;5251;52.112;8.606;2024-02-21T11:56:59;9.63;;;5.13;;
10410;SDS011;5251;52.112;8.606;2024-02-21T11:59:25;6.80;;;4.57;;
10410;SDS011;5251;52.112;8.606;2024-02-21T12:01:52;7.25;;;5.22;;
10410;SDS011;5251;52.112;8.606;2024-02-21T12:04:18;10.88;;;5.88;;
10410;SDS011;5251;52.112;8.606;2024-02-21T12:06:45;7.70;;;4.90;;
10410;SDS011;5251;52.112;8.606;2024-02-21T12:09:14;7.10;;;4.97;;
10410;SDS011;5251;52.112;8.606;2024-02-21T12:11:44;8.82;;;5.35;;
10410;SDS011;5251;52.112;8.606;2024-02-21T12:14:10;7.65;;;4.93;;
10410;SDS011;5251;52.112;8.606;2024-02-21T12:16:36;8.07;;;4.45;;
10410;SDS011;5251;52.112;8.606;2024-02-21T12:19:02;7.80;;;4.47;;
10410;SDS011;5251;52.112;8.606;2024-02-21T12:21:32;11.45;;;4.47;;
10410;SDS011;5251;52.112;8.606;2024-02-21T12:24:11;7.68;;;4.55;;
10410;SDS011;5251;52.112;8.606;2024-02-21T12:26:37;8.43;;;4.35;;
10410;SDS011;5251;52.112;8.606;2024-02-21T12:29:02;8.35;;;4.90;;
10410;SDS011;5251;52.112;8.606;2024-02-21T12:31:28;7.82;;;4.63;;
10410;SDS011;5251;52.112;8.606;2024-02-21T12:33:54;9.60;;;4.72;;
10410;SDS011;5251;52.112;8.606;2024-02-21T12:36:20;6.15;;;4.25;;
10410;SDS011;5251;52.112;8.606;2024-02-21T12:38:46;8.77;;;4.43;;
10410;SDS011;5251;52.112;8.606;2024-02-21T12:41:13;10.63;;;5.18;;
10410;SDS011;5251;52.112;8.606;2024-02-21T12:43:39;7.70;;;4.55;;
10410;SDS011;5251;52.112;8.606;2024-02-21T12:46:05;7.38;;;4.35;;
10410;SDS011;5251;52.112;8.606;2024-02-21T12:48:32;6.95;;;4.00;;
10410;SDS011;5251;52.112;8.606;2024-02-21T12:50:59;8.90;;;4.97;;
10410;SDS011;5251;52.112;8.606;2024-02-21T12:53:24;7.18;;;4.57;;
10410;SDS011;5251;52.112;8.606;2024-02-21T12:55:50;6.88;;;4.63;;
10410;SDS011;5251;52.112;8.606;2024-02-21T12:58:16;5.90;;;4.50;;
10410;SDS011;5251;52.112;8.606;2024-02-21T13:00:42;8.40;;;4.93;;
10410;SDS011;5251;52.112;8.606;2024-02-21T13:03:08;8.55;;;4.53;;
10410;SDS011;5251;52.112;8.606;2024-02-21T13:05:37;7.45;;;4.57;;
10410;SDS011;5251;52.112;8.606;2024-02-21T13:08:04;8.02;;;4.63;;
10410;SDS011;5251;52.112;8.606;2024-02-21T13:10:30;7.75;;;4.82;;
10410;SDS011;5251;52.112;8.606;2024-02-21T13:12:56;10.93;;;5.53;;
10410;SDS011;5251;52.112;8.606;2024-02-21T13:15:21;8.18;;;5.05;;
10410;SDS011;5251;52.112;8.606;2024-02-21T13:17:47;9.90;;;5.10;;
10410;SDS011;5251;52.112;8.606;2024-02-21T13:20:13;8.27;;;4.60;;
10410;SDS011;5251;52.112;8.606;2024-02-21T13:22:38;8.15;;;4.70;;
10410;SDS011;5251;52.112;8.606;2024-02-21T13:25:05;7.45;;;4.70;;
10410;SDS011;5251;52.112;8.606;2024-02-21T13:27:32;8.73;;;4.85;;
10410;SDS011;5251;52.112;8.606;2024-02-21T13:29:58;9.95;;;4.70;;
10410;SDS011;5251;52.112;8.606;2024-02-21T13:32:26;7.60;;;4.80;;
10410;SDS011;5251;52.112;8.606;2024-02-21T13:34:52;6.38;;;4.32;;
10410;SDS011;5251;52.112;8.606;2024-02-21T13:37:17;7.47;;;4.13;;
10410;SDS011;5251;52.112;8.606;2024-02-21T13:39:43;8.15;;;4.60;;
10410;SDS011;5251;52.112;8.606;2024-02-21T13:42:09;7.10;;;3.90;;
10410;SDS011;5251;52.112;8.606;2024-02-21T13:44:35;6.30;;;3.83;;
10410;SDS011;5251;52.112;8.606;2024-02-21T13:47:02;9.18;;;4.07;;
10410;SDS011;5251;52.112;8.606;2024-02-21T13:49:28;7.68;;;3.95;;
10410;SDS011;5251;52.112;8.606;2024-02-21T13:51:54;8.30;;;4.28;;
10410;SDS011;5251;52.112;8.606;2024-02-21T13:54:19;7.57;;;3.22;;
10410;SDS011;5251;52.112;8.606;2024-02-21T13:56:46;7.40;;;3.67;;
10410;SDS011;5251;52.112;8.606;2024-02-21T13:59:12;4.90;;;2.67;;
10410;SDS011;5251;52.112;8.606;2024-02-21T14:01:41;5.82;;;2.78;;
10410;SDS011;5251;52.112;8.606;2024-02-21T14:04:07;7.43;;;3.45;;
10410;SDS011;5251;52.112;8.606;2024-02-21T14:06:32;5.30;;;2.95;;
10410;SDS011;5251;52.112;8.606;2024-02-21T14:08:58;5.47;;;2.92;;
10410;SDS011;5251;52.112;8.606;2024-02-21T14:11:23;5.57;;;2.92;;
10410;SDS011;5251;52.112;8.606;2024-02-21T14:13:49;6.57;;;3.17;;
10410;SDS011;5251;52.112;8.606;2024-02-21T14:16:15;6.65;;;3.22;;
10410;SDS011;5251;52.112;8.606;2024-02-21T14:18:41;3.80;;;2.83;;
10410;SDS011;5251;52.112;8.606;2024-02-21T14:21:10;5.60;;;2.67;;
10410;SDS011;5251;52.112;8.606;2024-02-21T14:23:39;5.35;;;2.72;;
10410;SDS011;5251;52.112;8.606;2024-02-21T14:26:05;4.47;;;2.50;;
10410;SDS011;5251;52.112;8.606;2024-02-21T14:28:32;7.18;;;2.92;;
10410;SDS011;5251;52.112;8.606;2024-02-21T14:30:59;4.95;;;2.80;;
10410;SDS011;5251;52.112;8.606;2024-02-21T14:33:25;4.45;;;2.80;;
10410;SDS011;5251;52.112;8.606;2024-02-21T14:35:52;3.22;;;2.20;;
10410;SDS011;5251;52.112;8.606;2024-02-21T14:38:18;4.53;;;2.60;;
10410;SDS011;5251;52.112;8.606;2024-02-21T14:40:44;5.85;;;2.70;;
10410;SDS011;5251;52.112;8.606;2024-02-21T14:43:10;4.95;;;2.20;;
10410;SDS011;5251;52.112;8.606;2024-02-21T14:45:36;4.07;;;2.22;;
10410;SDS011;5251;52.112;8.606;2024-02-21T14:48:03;3.67;;;2.20;;
10410;SDS011;5251;52.112;8.606;2024-02-21T14:50:29;4.82;;;2.47;;